sensor_id;sensor_type;location;lat;lon;timestamp;temperature;humidity
18317;DHT22;9284;52.298;21.164;2022-12-13T04:09:43;-1.00;99.90
18317;DHT22;9284;52.298;21.164;2022-12-13T04:12:11;-0.90;1.00
18317;DHT22;9284;52.298;21.164;2022-12-13T04:14:57;-1.00;1.00
18317;DHT22;9284;52.298;21.164;2022-12-13T04:17:25;-0.90;1.00
18317;DHT22;9284;52.298;21.164;2022-12-13T04:19:53;-0.90;99.90
18317;DHT22;9284;52.298;21.164;2022-12-13T04:22:22;-1.00;99.90
18317;DHT22;9284;52.298;21.164;2022-12-13T04:24:52;-0.90;99.90
18317;DHT22;9284;52.298;21.164;2022-12-13T04:27:20;-0.90;99.90
18317;DHT22;9284;52.298;21.164;2022-12-13T04:29:48;-0.80;1.00
18317;DHT22;9284;52.298;21.164;2022-12-13T04:32:17;-0.90;1.00
18317;DHT22;9284;52.298;21.164;2022-12-13T04:34:53;-0.80;1.00
18317;DHT22;9284;52.298;21.164;2022-12-13T04:37:27;-0.80;1.00
18317;DHT22;9284;52.298;21.164;2022-12-13T04:39:57;-0.80;1.00
18317;DHT22;9284;52.298;21.164;2022-12-13T04:42:27;-0.90;1.00
18317;DHT22;9284;52.298;21.164;2022-12-13T04:44:55;-0.90;99.90
18317;DHT22;9284;52.298;21.164;2022-12-13T04:47:23;-0.90;85.70
18317;DHT22;9284;52.298;21.164;2022-12-13T04:49:51;-0.90;38.40
18317;DHT22;9284;52.298;21.164;2022-12-13T04:52:20;-0.80;1.00
18317;DHT22;9284;52.298;21.164;2022-12-13T04:54:49;-0.80;1.00
18317;DHT22;9284;52.298;21.164;2022-12-13T04:57:23;-0.90;1.00
18317;DHT22;9284;52.298;21.164;2022-12-13T04:59:51;-0.90;1.00
18317;DHT22;9284;52.298;21.164;2022-12-13T05:02:22;-0.80;15.20
18317;DHT22;9284;52.298;21.164;2022-12-13T05:04:51;-0.90;97.00
18317;DHT22;9284;52.298;21.164;2022-12-13T05:07:22;-0.90;99.90
18317;DHT22;9284;52.298;21.164;2022-12-13T05:09:51;-0.90;64.30
18317;DHT22;9284;52.298;21.164;2022-12-13T05:12:20;-0.90;99.90
18317;DHT22;9284;52.298;21.164;2022-12-13T05:14:51;-0.90;1.00
18317;DHT22;9284;52.298;21.164;2022-12-13T05:17:20;-1.00;1.00
18317;DHT22;9284;52.298;21.164;2022-12-13T05:19:48;-0.70;1.00
18317;DHT22;9284;52.298;21.164;2022-12-13T05:22:16;-0.90;99.90
18317;DHT22;9284;52.298;21.164;2022-12-13T05:24:47;-0.80;99.90
18317;DHT22;9284;52.298;21.164;2022-12-13T05:27:15;-0.90;99.90
18317;DHT22;9284;52.298;21.164;2022-12-13T05:29:53;-1.00;1.00
18317;DHT22;9284;52.298;21.164;2022-12-13T05:32:32;-1.00;1.00
18317;DHT22;9284;52.298;21.164;2022-12-13T05:35:10;-1.10;1.00
18317;DHT22;9284;52.298;21.164;2022-12-13T05:37:40;-1.00;99.90
18317;DHT22;9284;52.298;21.164;2022-12-13T05:40:08;-1.00;99.90
18317;DHT22;9284;52.298;21.164;2022-12-13T05:42:37;-1.10;1.00
18317;DHT22;9284;52.298;21.164;2022-12-13T05:45:08;-1.00;1.00
18317;DHT22;9284;52.298;21.164;2022-12-13T05:47:36;-1.10;1.00
18317;DHT22;9284;52.298;21.164;2022-12-13T05:50:05;-1.10;1.00
18317;DHT22;9284;52.298;21.164;2022-12-13T05:52:33;-1.10;93.20
18317;DHT22;9284;52.298;21.164;2022-12-13T05:55:01;-1.10;99.90
18317;DHT22;9284;52.298;21.164;2022-12-13T05:57:29;-1.10;99.90
18317;DHT22;9284;52.298;21.164;2022-12-13T06:00:00;-1.10;99.90
18317;DHT22;9284;52.298;21.164;2022-12-13T06:02:40;-1.10;99.90
18317;DHT22;9284;52.298;21.164;2022-12-13T06:05:10;-1.10;99.90
18317;DHT22;9284;52.298;21.164;2022-12-13T06:07:38;-1.00;26.40
18317;DHT22;9284;52.298;21.164;2022-12-13T06:10:08;-1.10;1.00
18317;DHT22;9284;52.298;21.164;2022-12-13T06:12:47;-1.10;1.00
18317;DHT22;9284;52.298;21.164;2022-12-13T06:15:15;-1.10;1.00
18317;DHT22;9284;52.298;21.164;2022-12-13T06:17:49;-1.10;1.00
18317;DHT22;9284;52.298;21.164;2022-12-13T06:20:18;-1.10;1.00
18317;DHT22;9284;52.298;21.164;2022-12-13T06:22:50;-1.10;1.00
18317;DHT22;9284;52.298;21.164;2022-12-13T06:25:18;-1.10;1.00
18317;DHT22;9284;52.298;21.164;2022-12-13T06:27:57;-1.10;99.90
18317;DHT22;9284;52.298;21.164;2022-12-13T06:30:27;-1.20;99.90
18317;DHT22;9284;52.298;21.164;2022-12-13T06:32:57;-1.20;1.00
18317;DHT22;9284;52.298;21.164;2022-12-13T06:35:25;-1.20;1.00
18317;DHT22;9284;52.298;21.164;2022-12-13T06:37:57;-1.20;1.00
18317;DHT22;9284;52.298;21.164;2022-12-13T06:40:28;-1.20;1.00
18317;DHT22;9284;52.298;21.164;2022-12-13T06:42:56;-1.20;1.00
18317;DHT22;9284;52.298;21.164;2022-12-13T06:45:25;-1.30;1.00
18317;DHT22;9284;52.298;21.164;2022-12-13T06:47:54;-1.30;1.00
18317;DHT22;9284;52.298;21.164;2022-12-13T06:50:24;-1.30;1.00
18317;DHT22;9284;52.298;21.164;2022-12-13T06:52:52;-1.40;99.90
18317;DHT22;9284;52.298;21.164;2022-12-13T06:55:20;-1.40;99.90
18317;DHT22;9284;52.298;21.164;2022-12-13T06:57:50;-1.40;99.90
18317;DHT22;9284;52.298;21.164;2022-12-13T07:00:18;-1.40;12.60
18317;DHT22;9284;52.298;21.164;2022-12-13T07:02:51;-1.30;99.90
18317;DHT22;9284;52.298;21.164;2022-12-13T07:05:21;-1.30;99.90
18317;DHT22;9284;52.298;21.164;2022-12-13T07:07:50;-1.50;1.00
18317;DHT22;9284;52.298;21.164;2022-12-13T07:10:21;-1.40;1.00
18317;DHT22;9284;52.298;21.164;2022-12-13T07:12:50;-1.50;46.10
18317;DHT22;9284;52.298;21.164;2022-12-13T07:15:18;-1.50;1.00
18317;DHT22;9284;52.298;21.164;2022-12-13T07:17:48;-1.50;99.90
18317;DHT22;9284;52.298;21.164;2022-12-13T07:20:17;-1.50;99.90
18317;DHT22;9284;52.298;21.164;2022-12-13T07:22:46;-1.50;41.80
18317;DHT22;9284;52.298;21.164;2022-12-13T07:25:26;-1.60;1.00
18317;DHT22;9284;52.298;21.164;2022-12-13T07:27:57;-1.40;1.00
18317;DHT22;9284;52.298;21.164;2022-12-13T07:30:28;-1.50;1.00
18317;DHT22;9284;52.298;21.164;2022-12-13T07:32:57;-1.60;1.00
18317;DHT22;9284;52.298;21.164;2022-12-13T07:35:25;-1.50;1.00
18317;DHT22;9284;52.298;21.164;2022-12-13T07:37:53;-1.60;99.90
18317;DHT22;9284;52.298;21.164;2022-12-13T07:40:22;-1.60;1.00
18317;DHT22;9284;52.298;21.164;2022-12-13T07:42:54;-1.50;99.90
18317;DHT22;9284;52.298;21.164;2022-12-13T07:45:24;-1.60;1.00
18317;DHT22;9284;52.298;21.164;2022-12-13T07:47:52;-1.60;88.40
18317;DHT22;9284;52.298;21.164;2022-12-13T07:50:21;-1.70;1.00
18317;DHT22;9284;52.298;21.164;2022-12-13T07:52:52;-1.50;1.00
18317;DHT22;9284;52.298;21.164;2022-12-13T07:55:20;-1.60;1.00
18317;DHT22;9284;52.298;21.164;2022-12-13T07:58:06;-1.60;99.90
18317;DHT22;9284;52.298;21.164;2022-12-13T08:00:35;-1.50;99.90
18317;DHT22;9284;52.298;21.164;2022-12-13T08:03:04;-1.50;99.90
18317;DHT22;9284;52.298;21.164;2022-12-13T08:05:34;-1.60;1.00
18317;DHT22;9284;52.298;21.164;2022-12-13T08:08:06;-1.60;99.90
18317;DHT22;9284;52.298;21.164;2022-12-13T08:10:35;-1.60;1.00
18317;DHT22;9284;52.298;21.164;2022-12-13T08:13:05;-1.60;47.80
18317;DHT22;9284;52.298;21.164;2022-12-13T08:15:33;-1.60;1.00
18317;DHT22;9284;52.298;21.164;2022-12-13T08:18:01;-1.60;1.00
18317;DHT22;9284;52.298;21.164;2022-12-13T08:20:31;-1.50;19.20
18317;DHT22;9284;52.298;21.164;2022-12-13T08:22:59;-1.60;1.00
18317;DHT22;9284;52.298;21.164;2022-12-13T08:25:29;-1.60;1.00
18317;DHT22;9284;52.298;21.164;2022-12-13T08:27:57;-1.60;1.00
18317;DHT22;9284;52.298;21.164;2022-12-13T08:30:30;-1.60;1.00
18317;DHT22;9284;52.298;21.164;2022-12-13T08:32:59;-1.50;99.90
18317;DHT22;9284;52.298;21.164;2022-12-13T08:35:31;-1.50;99.90
18317;DHT22;9284;52.298;21.164;2022-12-13T08:38:01;-1.50;1.00
18317;DHT22;9284;52.298;21.164;2022-12-13T08:40:29;-1.50;1.00
18317;DHT22;9284;52.298;21.164;2022-12-13T08:42:58;-1.60;1.00
18317;DHT22;9284;52.298;21.164;2022-12-13T08:45:26;-1.60;1.00
18317;DHT22;9284;52.298;21.164;2022-12-13T08:47:57;-1.60;99.90
18317;DHT22;9284;52.298;21.164;2022-12-13T08:50:27;-1.60;95.10
18317;DHT22;9284;52.298;21.164;2022-12-13T08:52:56;-1.60;1.00
18317;DHT22;9284;52.298;21.164;2022-12-13T08:55:24;-1.70;19.20
18317;DHT22;9284;52.298;21.164;2022-12-13T08:57:58;-1.50;1.00
18317;DHT22;9284;52.298;21.164;2022-12-13T09:00:27;-1.50;38.30
18317;DHT22;9284;52.298;21.164;2022-12-13T09:03:03;-1.50;99.90
18317;DHT22;9284;52.298;21.164;2022-12-13T09:05:37;-1.50;99.90
18317;DHT22;9284;52.298;21.164;2022-12-13T09:08:06;-1.40;80.90
18317;DHT22;9284;52.298;21.164;2022-12-13T09:10:57;-1.50;99.90
18317;DHT22;9284;52.298;21.164;2022-12-13T09:13:27;-1.50;1.00
18317;DHT22;9284;52.298;21.164;2022-12-13T09:15:58;-1.50;46.60
18317;DHT22;9284;52.298;21.164;2022-12-13T09:18:28;-1.50;99.90
18317;DHT22;9284;52.298;21.164;2022-12-13T09:21:07;-1.60;99.90
18317;DHT22;9284;52.298;21.164;2022-12-13T09:23:38;-1.70;1.00
18317;DHT22;9284;52.298;21.164;2022-12-13T09:26:15;-1.70;99.90
18317;DHT22;9284;52.298;21.164;2022-12-13T09:28:51;-1.60;99.90
18317;DHT22;9284;52.298;21.164;2022-12-13T09:31:19;-1.70;99.90
18317;DHT22;9284;52.298;21.164;2022-12-13T09:33:49;-1.80;99.90
18317;DHT22;9284;52.298;21.164;2022-12-13T09:36:19;-1.80;1.00
18317;DHT22;9284;52.298;21.164;2022-12-13T09:38:51;-1.90;1.00
18317;DHT22;9284;52.298;21.164;2022-12-13T09:41:22;-1.80;78.70
18317;DHT22;9284;52.298;21.164;2022-12-13T09:43:57;-1.80;1.00
18317;DHT22;9284;52.298;21.164;2022-12-13T09:46:29;-1.70;1.00
18317;DHT22;9284;52.298;21.164;2022-12-13T09:49:15;-1.60;99.90
18317;DHT22;9284;52.298;21.164;2022-12-13T09:51:52;-1.50;99.90
18317;DHT22;9284;52.298;21.164;2022-12-13T09:54:38;-1.60;1.00
18317;DHT22;9284;52.298;21.164;2022-12-13T09:57:18;-1.70;99.90
18317;DHT22;9284;52.298;21.164;2022-12-13T10:00:03;-1.60;1.00
18317;DHT22;9284;52.298;21.164;2022-12-13T10:02:42;-1.70;99.90
18317;DHT22;9284;52.298;21.164;2022-12-13T10:05:21;-1.60;99.90
18317;DHT22;9284;52.298;21.164;2022-12-13T10:08:06;-1.60;1.00
18317;DHT22;9284;52.298;21.164;2022-12-13T10:10:35;-1.60;99.90
18317;DHT22;9284;52.298;21.164;2022-12-13T10:13:11;-1.60;99.90
18317;DHT22;9284;52.298;21.164;2022-12-13T10:15:45;-1.30;1.00
18317;DHT22;9284;52.298;21.164;2022-12-13T10:18:26;-1.50;1.00
18317;DHT22;9284;52.298;21.164;2022-12-13T10:21:01;-1.60;1.00
18317;DHT22;9284;52.298;21.164;2022-12-13T10:23:30;-1.50;99.90
18317;DHT22;9284;52.298;21.164;2022-12-13T10:26:19;-1.50;1.00
18317;DHT22;9284;52.298;21.164;2022-12-13T10:29:00;-1.70;1.00
18317;DHT22;9284;52.298;21.164;2022-12-13T10:31:29;-1.60;1.00
18317;DHT22;9284;52.298;21.164;2022-12-13T10:34:05;-1.70;99.90
18317;DHT22;9284;52.298;21.164;2022-12-13T10:36:43;-1.70;99.90
18317;DHT22;9284;52.298;21.164;2022-12-13T10:39:18;-1.60;1.00
18317;DHT22;9284;52.298;21.164;2022-12-13T10:42:02;-1.50;99.90
18317;DHT22;9284;52.298;21.164;2022-12-13T10:44:31;-1.50;99.90
18317;DHT22;9284;52.298;21.164;2022-12-13T10:47:03;-1.50;99.90
18317;DHT22;9284;52.298;21.164;2022-12-13T10:49:49;-1.50;99.90
18317;DHT22;9284;52.298;21.164;2022-12-13T10:52:29;-1.50;36.30
18317;DHT22;9284;52.298;21.164;2022-12-13T10:55:01;-1.40;1.00
18317;DHT22;9284;52.298;21.164;2022-12-13T10:57:50;-1.40;1.00
18317;DHT22;9284;52.298;21.164;2022-12-13T11:00:44;-1.20;1.00
18317;DHT22;9284;52.298;21.164;2022-12-13T11:03:29;-1.20;1.00
18317;DHT22;9284;52.298;21.164;2022-12-13T11:06:03;-1.20;1.00
18317;DHT22;9284;52.298;21.164;2022-12-13T11:08:34;-1.20;1.00
18317;DHT22;9284;52.298;21.164;2022-12-13T11:11:03;-1.30;99.90
18317;DHT22;9284;52.298;21.164;2022-12-13T11:13:35;-1.40;99.90
18317;DHT22;9284;52.298;21.164;2022-12-13T11:16:17;-1.30;99.90
18317;DHT22;9284;52.298;21.164;2022-12-13T11:18:51;-1.40;99.90
18317;DHT22;9284;52.298;21.164;2022-12-13T11:21:23;-1.40;1.00
18317;DHT22;9284;52.298;21.164;2022-12-13T11:23:55;-1.40;99.90
18317;DHT22;9284;52.298;21.164;2022-12-13T11:26:31;-1.40;1.00
18317;DHT22;9284;52.298;21.164;2022-12-13T11:29:14;-1.50;99.90
18317;DHT22;9284;52.298;21.164;2022-12-13T11:31:54;-1.60;1.00
18317;DHT22;9284;52.298;21.164;2022-12-13T11:34:32;-1.50;1.00
18317;DHT22;9284;52.298;21.164;2022-12-13T11:37:11;-1.70;1.00
18317;DHT22;9284;52.298;21.164;2022-12-13T11:39:48;-1.80;1.00
18317;DHT22;9284;52.298;21.164;2022-12-13T11:42:30;-1.80;18.90
18317;DHT22;9284;52.298;21.164;2022-12-13T11:45:06;-2.00;1.00
18317;DHT22;9284;52.298;21.164;2022-12-13T11:47:44;-2.20;99.90
18317;DHT22;9284;52.298;21.164;2022-12-13T11:50:15;-2.10;99.90
18317;DHT22;9284;52.298;21.164;2022-12-13T11:53:16;-2.20;1.00
18317;DHT22;9284;52.298;21.164;2022-12-13T11:55:53;-2.30;1.00
18317;DHT22;9284;52.298;21.164;2022-12-13T11:58:29;-2.40;1.00
18317;DHT22;9284;52.298;21.164;2022-12-13T12:01:21;-2.40;99.90
18317;DHT22;9284;52.298;21.164;2022-12-13T12:03:59;-2.40;99.90
18317;DHT22;9284;52.298;21.164;2022-12-13T12:06:37;-2.40;99.90
18317;DHT22;9284;52.298;21.164;2022-12-13T12:09:12;-2.20;82.80
18317;DHT22;9284;52.298;21.164;2022-12-13T12:11:49;-2.30;1.00
18317;DHT22;9284;52.298;21.164;2022-12-13T12:14:21;-2.30;99.90
18317;DHT22;9284;52.298;21.164;2022-12-13T12:16:53;-2.10;1.00
18317;DHT22;9284;52.298;21.164;2022-12-13T12:19:26;-2.10;1.00
18317;DHT22;9284;52.298;21.164;2022-12-13T12:22:10;-2.10;1.00
18317;DHT22;9284;52.298;21.164;2022-12-13T12:24:51;-1.90;59.00
18317;DHT22;9284;52.298;21.164;2022-12-13T12:27:29;-1.90;1.00
18317;DHT22;9284;52.298;21.164;2022-12-13T12:30:11;-1.90;1.00
18317;DHT22;9284;52.298;21.164;2022-12-13T12:32:59;-2.00;99.90
18317;DHT22;9284;52.298;21.164;2022-12-13T12:35:52;-1.90;1.00
18317;DHT22;9284;52.298;21.164;2022-12-13T12:41:39;-2.10;1.00
18317;DHT22;9284;52.298;21.164;2022-12-13T12:44:22;-2.10;1.00
18317;DHT22;9284;52.298;21.164;2022-12-13T12:47:18;-2.10;1.00
18317;DHT22;9284;52.298;21.164;2022-12-13T12:50:17;-2.00;99.90
18317;DHT22;9284;52.298;21.164;2022-12-13T12:52:53;-1.70;99.90
18317;DHT22;9284;52.298;21.164;2022-12-13T12:55:30;-1.80;99.90
18317;DHT22;9284;52.298;21.164;2022-12-13T12:58:18;-1.80;1.00
18317;DHT22;9284;52.298;21.164;2022-12-13T13:00:58;-1.60;18.70
18317;DHT22;9284;52.298;21.164;2022-12-13T13:03:34;-1.60;1.00
18317;DHT22;9284;52.298;21.164;2022-12-13T13:06:07;-1.80;1.00
18317;DHT22;9284;52.298;21.164;2022-12-13T13:08:42;-1.70;1.00
18317;DHT22;9284;52.298;21.164;2022-12-13T13:11:21;-1.50;1.00
18317;DHT22;9284;52.298;21.164;2022-12-13T13:14:04;-1.70;99.90
18317;DHT22;9284;52.298;21.164;2022-12-13T13:16:37;-1.70;73.20
18317;DHT22;9284;52.298;21.164;2022-12-13T13:19:40;-1.80;99.90
18317;DHT22;9284;52.298;21.164;2022-12-13T13:22:30;-1.80;1.00
18317;DHT22;9284;52.298;21.164;2022-12-13T13:25:21;-1.80;1.00
18317;DHT22;9284;52.298;21.164;2022-12-13T13:28:00;-1.70;1.00
18317;DHT22;9284;52.298;21.164;2022-12-13T13:30:30;-2.00;1.00
18317;DHT22;9284;52.298;21.164;2022-12-13T13:32:59;-2.00;1.00
18317;DHT22;9284;52.298;21.164;2022-12-13T13:35:50;-2.00;99.90
18317;DHT22;9284;52.298;21.164;2022-12-13T13:38:50;-2.00;99.90
18317;DHT22;9284;52.298;21.164;2022-12-13T13:41:52;-2.10;99.90
18317;DHT22;9284;52.298;21.164;2022-12-13T13:47:38;-2.20;1.00
18317;DHT22;9284;52.298;21.164;2022-12-13T13:56:35;-2.30;99.90
18317;DHT22;9284;52.298;21.164;2022-12-13T14:06:16;-2.40;1.00
18317;DHT22;9284;52.298;21.164;2022-12-13T14:09:07;-2.40;1.00
18317;DHT22;9284;52.298;21.164;2022-12-13T14:12:27;-2.40;1.00
18317;DHT22;9284;52.298;21.164;2022-12-13T14:21:30;-2.60;99.90
18317;DHT22;9284;52.298;21.164;2022-12-13T14:26:59;-2.60;99.90
18317;DHT22;9284;52.298;21.164;2022-12-13T14:29:36;-2.70;99.90
18317;DHT22;9284;52.298;21.164;2022-12-13T14:32:19;-2.70;1.00
18317;DHT22;9284;52.298;21.164;2022-12-13T14:34:54;-2.70;39.00
18317;DHT22;9284;52.298;21.164;2022-12-13T14:37:26;-2.90;99.90
18317;DHT22;9284;52.298;21.164;2022-12-13T14:39:56;-2.90;99.90
18317;DHT22;9284;52.298;21.164;2022-12-13T14:42:27;-2.80;1.00
18317;DHT22;9284;52.298;21.164;2022-12-13T14:45:13;-2.90;1.00
18317;DHT22;9284;52.298;21.164;2022-12-13T14:47:43;-3.00;99.90
18317;DHT22;9284;52.298;21.164;2022-12-13T14:50:16;-3.00;1.00
18317;DHT22;9284;52.298;21.164;2022-12-13T14:52:46;-2.90;99.90
18317;DHT22;9284;52.298;21.164;2022-12-13T14:55:24;-2.90;1.00
18317;DHT22;9284;52.298;21.164;2022-12-13T14:57:54;-3.00;1.00
18317;DHT22;9284;52.298;21.164;2022-12-13T15:00:28;-3.00;1.00
18317;DHT22;9284;52.298;21.164;2022-12-13T15:02:59;-3.10;17.50
18317;DHT22;9284;52.298;21.164;2022-12-13T15:05:31;-3.10;99.90
18317;DHT22;9284;52.298;21.164;2022-12-13T15:08:02;-3.10;99.90
18317;DHT22;9284;52.298;21.164;2022-12-13T15:10:39;-3.20;99.90
18317;DHT22;9284;52.298;21.164;2022-12-13T15:13:24;-3.10;99.90
18317;DHT22;9284;52.298;21.164;2022-12-13T15:15:58;-3.00;1.00
18317;DHT22;9284;52.298;21.164;2022-12-13T15:18:40;-3.10;99.90
18317;DHT22;9284;52.298;21.164;2022-12-13T15:21:39;-3.10;99.90
18317;DHT22;9284;52.298;21.164;2022-12-13T15:24:12;-3.10;1.00
18317;DHT22;9284;52.298;21.164;2022-12-13T15:26:44;-3.10;1.00
18317;DHT22;9284;52.298;21.164;2022-12-13T15:29:18;-3.10;1.00
18317;DHT22;9284;52.298;21.164;2022-12-13T15:31:49;-3.10;1.00
18317;DHT22;9284;52.298;21.164;2022-12-13T15:34:21;-3.30;1.00
18317;DHT22;9284;52.298;21.164;2022-12-13T15:36:57;-3.20;90.20
18317;DHT22;9284;52.298;21.164;2022-12-13T15:39:27;-3.20;99.90
18317;DHT22;9284;52.298;21.164;2022-12-13T15:41:58;-3.20;99.90
18317;DHT22;9284;52.298;21.164;2022-12-13T15:44:28;-3.10;1.00
18317;DHT22;9284;52.298;21.164;2022-12-13T15:47:02;-3.10;1.00
18317;DHT22;9284;52.298;21.164;2022-12-13T15:49:34;-3.10;1.00
18317;DHT22;9284;52.298;21.164;2022-12-13T15:52:05;-3.10;99.90
18317;DHT22;9284;52.298;21.164;2022-12-13T15:54:55;-3.10;99.90
18317;DHT22;9284;52.298;21.164;2022-12-13T15:57:25;-3.00;3.30
18317;DHT22;9284;52.298;21.164;2022-12-13T16:00:05;-3.00;1.00
18317;DHT22;9284;52.298;21.164;2022-12-13T16:02:50;-3.10;1.00
18317;DHT22;9284;52.298;21.164;2022-12-13T16:05:27;-3.00;99.90
18317;DHT22;9284;52.298;21.164;2022-12-13T16:07:59;-3.00;99.90
18317;DHT22;9284;52.298;21.164;2022-12-13T16:10:45;-3.10;99.90
18317;DHT22;9284;52.298;21.164;2022-12-13T16:13:22;-3.10;99.90
18317;DHT22;9284;52.298;21.164;2022-12-13T16:15:57;-3.10;99.90
18317;DHT22;9284;52.298;21.164;2022-12-13T16:18:51;-3.10;99.90
18317;DHT22;9284;52.298;21.164;2022-12-13T16:21:23;-3.20;1.00
18317;DHT22;9284;52.298;21.164;2022-12-13T16:23:52;-3.10;1.00
18317;DHT22;9284;52.298;21.164;2022-12-13T16:26:24;-3.20;1.00
18317;DHT22;9284;52.298;21.164;2022-12-13T16:28:54;-3.20;1.00
18317;DHT22;9284;52.298;21.164;2022-12-13T16:31:25;-3.10;1.00
18317;DHT22;9284;52.298;21.164;2022-12-13T16:33:58;-3.10;1.00
18317;DHT22;9284;52.298;21.164;2022-12-13T16:36:27;-3.20;1.00
18317;DHT22;9284;52.298;21.164;2022-12-13T16:38:57;-2.90;1.00
18317;DHT22;9284;52.298;21.164;2022-12-13T16:41:26;-3.00;1.00
18317;DHT22;9284;52.298;21.164;2022-12-13T16:43:59;-3.00;1.00
18317;DHT22;9284;52.298;21.164;2022-12-13T16:46:30;-3.00;99.90
18317;DHT22;9284;52.298;21.164;2022-12-13T16:49:23;-3.00;99.90
18317;DHT22;9284;52.298;21.164;2022-12-13T16:51:52;-3.10;99.90
18317;DHT22;9284;52.298;21.164;2022-12-13T16:54:24;-3.00;99.90
18317;DHT22;9284;52.298;21.164;2022-12-13T16:56:54;-3.00;1.00
18317;DHT22;9284;52.298;21.164;2022-12-13T16:59:24;-3.00;1.00
18317;DHT22;9284;52.298;21.164;2022-12-13T17:01:54;-3.00;1.00
18317;DHT22;9284;52.298;21.164;2022-12-13T17:04:24;-2.90;1.00
18317;DHT22;9284;52.298;21.164;2022-12-13T17:06:58;-2.90;1.00
18317;DHT22;9284;52.298;21.164;2022-12-13T17:09:26;-3.10;1.00
18317;DHT22;9284;52.298;21.164;2022-12-13T17:11:55;-3.00;1.00
18317;DHT22;9284;52.298;21.164;2022-12-13T17:14:23;-3.10;1.00
18317;DHT22;9284;52.298;21.164;2022-12-13T17:16:51;-3.10;1.00
18317;DHT22;9284;52.298;21.164;2022-12-13T17:19:20;-3.10;1.00
18317;DHT22;9284;52.298;21.164;2022-12-13T17:21:50;-3.00;1.00
18317;DHT22;9284;52.298;21.164;2022-12-13T17:24:19;-3.00;1.00
18317;DHT22;9284;52.298;21.164;2022-12-13T17:26:47;-3.10;1.00
18317;DHT22;9284;52.298;21.164;2022-12-13T17:29:22;-3.00;1.00
18317;DHT22;9284;52.298;21.164;2022-12-13T17:31:50;-3.10;1.00
18317;DHT22;9284;52.298;21.164;2022-12-13T17:34:21;-3.00;99.90
18317;DHT22;9284;52.298;21.164;2022-12-13T17:36:53;-2.90;1.00
18317;DHT22;9284;52.298;21.164;2022-12-13T17:39:23;-3.10;1.00
18317;DHT22;9284;52.298;21.164;2022-12-13T17:41:52;-3.10;99.90
18317;DHT22;9284;52.298;21.164;2022-12-13T17:44:23;-3.20;99.90
18317;DHT22;9284;52.298;21.164;2022-12-13T17:46:53;-3.20;99.90
18317;DHT22;9284;52.298;21.164;2022-12-13T17:49:22;-3.20;99.90
18317;DHT22;9284;52.298;21.164;2022-12-13T17:51:52;-3.20;99.90
18317;DHT22;9284;52.298;21.164;2022-12-13T17:54:24;-3.20;1.00
18317;DHT22;9284;52.298;21.164;2022-12-13T17:56:54;-3.30;99.90
18317;DHT22;9284;52.298;21.164;2022-12-13T17:59:23;-3.20;99.90
18317;DHT22;9284;52.298;21.164;2022-12-13T18:01:53;-3.20;1.00
18317;DHT22;9284;52.298;21.164;2022-12-13T18:04:24;-3.20;1.00
18317;DHT22;9284;52.298;21.164;2022-12-13T18:06:54;-3.30;20.10
18317;DHT22;9284;52.298;21.164;2022-12-13T18:09:26;-3.30;1.00
18317;DHT22;9284;52.298;21.164;2022-12-13T18:11:58;-3.30;1.00
18317;DHT22;9284;52.298;21.164;2022-12-13T18:14:32;-3.10;1.00
18317;DHT22;9284;52.298;21.164;2022-12-13T18:17:01;-3.20;99.90
18317;DHT22;9284;52.298;21.164;2022-12-13T18:19:29;-3.20;99.90
18317;DHT22;9284;52.298;21.164;2022-12-13T18:22:09;-3.20;1.00
18317;DHT22;9284;52.298;21.164;2022-12-13T18:24:39;-3.10;1.00
18317;DHT22;9284;52.298;21.164;2022-12-13T18:27:07;-3.10;99.90
18317;DHT22;9284;52.298;21.164;2022-12-13T18:29:36;-3.20;99.90
18317;DHT22;9284;52.298;21.164;2022-12-13T18:32:22;-3.10;99.90
18317;DHT22;9284;52.298;21.164;2022-12-13T18:34:54;-3.10;1.00
18317;DHT22;9284;52.298;21.164;2022-12-13T18:37:25;-3.20;1.00
18317;DHT22;9284;52.298;21.164;2022-12-13T18:40:02;-3.30;1.00
18317;DHT22;9284;52.298;21.164;2022-12-13T18:42:33;-3.20;97.60
18317;DHT22;9284;52.298;21.164;2022-12-13T18:45:06;-3.20;1.00
18317;DHT22;9284;52.298;21.164;2022-12-13T18:47:37;-3.20;99.90
18317;DHT22;9284;52.298;21.164;2022-12-13T18:50:05;-3.20;99.90
18317;DHT22;9284;52.298;21.164;2022-12-13T18:52:35;-3.20;99.90
18317;DHT22;9284;52.298;21.164;2022-12-13T18:55:04;-3.10;99.90
18317;DHT22;9284;52.298;21.164;2022-12-13T18:57:33;-3.20;1.00
18317;DHT22;9284;52.298;21.164;2022-12-13T19:00:03;-3.10;1.00
18317;DHT22;9284;52.298;21.164;2022-12-13T19:02:34;-3.20;1.00
18317;DHT22;9284;52.298;21.164;2022-12-13T19:05:05;-3.10;88.90
18317;DHT22;9284;52.298;21.164;2022-12-13T19:07:35;-3.20;1.00
18317;DHT22;9284;52.298;21.164;2022-12-13T19:10:08;-3.10;1.00
18317;DHT22;9284;52.298;21.164;2022-12-13T19:12:37;-3.20;1.00
18317;DHT22;9284;52.298;21.164;2022-12-13T19:15:12;-3.10;1.00
18317;DHT22;9284;52.298;21.164;2022-12-13T19:17:42;-3.20;1.00
18317;DHT22;9284;52.298;21.164;2022-12-13T19:20:12;-3.20;1.00
18317;DHT22;9284;52.298;21.164;2022-12-13T19:22:50;-3.20;1.00
18317;DHT22;9284;52.298;21.164;2022-12-13T19:25:23;-3.30;1.00
18317;DHT22;9284;52.298;21.164;2022-12-13T19:27:54;-3.20;1.00
18317;DHT22;9284;52.298;21.164;2022-12-13T19:30:25;-3.20;1.00
18317;DHT22;9284;52.298;21.164;2022-12-13T19:32:58;-3.20;1.00
18317;DHT22;9284;52.298;21.164;2022-12-13T19:35:30;-3.10;1.00
18317;DHT22;9284;52.298;21.164;2022-12-13T19:38:01;-3.10;1.00
18317;DHT22;9284;52.298;21.164;2022-12-13T19:40:29;-3.20;1.00
18317;DHT22;9284;52.298;21.164;2022-12-13T19:42:58;-3.10;92.20
18317;DHT22;9284;52.298;21.164;2022-12-13T19:45:27;-3.20;32.00
18317;DHT22;9284;52.298;21.164;2022-12-13T19:47:55;-3.20;1.00
18317;DHT22;9284;52.298;21.164;2022-12-13T19:50:23;-3.10;1.00
18317;DHT22;9284;52.298;21.164;2022-12-13T19:52:52;-3.20;1.00
18317;DHT22;9284;52.298;21.164;2022-12-13T19:55:22;-3.20;86.40
18317;DHT22;9284;52.298;21.164;2022-12-13T19:57:50;-3.40;1.00
18317;DHT22;9284;52.298;21.164;2022-12-13T20:00:19;-3.00;1.00
18317;DHT22;9284;52.298;21.164;2022-12-13T20:02:47;-3.10;1.00
18317;DHT22;9284;52.298;21.164;2022-12-13T20:05:18;-3.00;1.00
18317;DHT22;9284;52.298;21.164;2022-12-13T20:07:50;-3.10;1.00
18317;DHT22;9284;52.298;21.164;2022-12-13T20:10:25;-3.20;1.00
18317;DHT22;9284;52.298;21.164;2022-12-13T20:12:59;-3.20;1.00
18317;DHT22;9284;52.298;21.164;2022-12-13T20:15:27;-3.10;1.00
18317;DHT22;9284;52.298;21.164;2022-12-13T20:17:58;-3.10;1.00
18317;DHT22;9284;52.298;21.164;2022-12-13T20:20:32;-3.10;1.00
18317;DHT22;9284;52.298;21.164;2022-12-13T20:23:21;-3.20;1.00
18317;DHT22;9284;52.298;21.164;2022-12-13T20:26:02;-3.30;1.00
18317;DHT22;9284;52.298;21.164;2022-12-13T20:28:31;-3.30;1.00
18317;DHT22;9284;52.298;21.164;2022-12-13T20:31:04;-3.30;1.00
18317;DHT22;9284;52.298;21.164;2022-12-13T20:33:33;-3.30;1.00
18317;DHT22;9284;52.298;21.164;2022-12-13T20:36:04;-3.30;99.90
18317;DHT22;9284;52.298;21.164;2022-12-13T20:38:53;-3.30;99.90
18317;DHT22;9284;52.298;21.164;2022-12-13T20:41:28;-3.30;99.90
18317;DHT22;9284;52.298;21.164;2022-12-13T20:43:58;-3.30;99.90
18317;DHT22;9284;52.298;21.164;2022-12-13T20:46:28;-3.30;1.00
18317;DHT22;9284;52.298;21.164;2022-12-13T20:49:01;-3.20;1.00
18317;DHT22;9284;52.298;21.164;2022-12-13T20:51:34;-3.20;1.00
18317;DHT22;9284;52.298;21.164;2022-12-13T20:54:03;-3.30;1.00
18317;DHT22;9284;52.298;21.164;2022-12-13T20:56:34;-3.30;1.00
18317;DHT22;9284;52.298;21.164;2022-12-13T20:59:05;-3.10;1.00